createdAt,value
2022-11-27T00:01:25.722Z,40.50
2022-11-27T00:03:53.857Z,34.70
2022-11-27T00:06:22.530Z,36.70
2022-11-27T00:08:49.679Z,33.60
2022-11-27T00:11:22.353Z,35.00
2022-11-27T00:13:49.853Z,37.30
2022-11-27T00:16:17.583Z,33.60
2022-11-27T00:18:45.061Z,32.80
2022-11-27T00:21:22.527Z,26.80
2022-11-27T00:23:50.728Z,26.00
2022-11-27T00:26:17.747Z,27.90
2022-11-27T00:28:44.899Z,28.10
2022-11-27T00:31:23.003Z,28.40
2022-11-27T00:33:49.961Z,28.70
2022-11-27T00:36:16.997Z,30.70
2022-11-27T00:38:44.025Z,24.20
2022-11-27T00:41:12.661Z,26.00
2022-11-27T00:43:44.620Z,26.20
2022-11-27T00:46:23.909Z,28.60
2022-11-27T00:48:53.977Z,31.60
2022-11-27T00:51:22.015Z,29.50
2022-11-27T00:53:49.198Z,28.90
2022-11-27T00:56:18.249Z,30.70
2022-11-27T00:58:45.636Z,26.60
2022-11-27T01:01:18.240Z,32.40
2022-11-27T01:03:46.007Z,31.50
2022-11-27T01:06:14.331Z,33.60
2022-11-27T01:08:41.669Z,35.20
2022-11-27T01:11:17.001Z,35.30
2022-11-27T01:13:44.188Z,39.10
2022-11-27T01:16:13.869Z,33.10
2022-11-27T01:18:42.529Z,35.00
2022-11-27T01:21:09.994Z,30.70
2022-11-27T01:23:37.185Z,31.70
2022-11-27T01:26:05.776Z,40.00
2022-11-27T01:28:33.073Z,40.80
2022-11-27T01:31:05.223Z,40.40
2022-11-27T01:33:32.770Z,32.00
2022-11-27T01:36:02.068Z,34.70
2022-11-27T01:38:29.890Z,34.20
2022-11-27T01:41:01.982Z,32.90
2022-11-27T01:43:37.671Z,30.70
2022-11-27T01:46:05.833Z,31.60
2022-11-27T01:48:32.857Z,30.40
2022-11-27T01:50:59.912Z,25.70
2022-11-27T01:53:27.372Z,25.90
2022-11-27T01:55:56.654Z,26.10
2022-11-27T01:58:25.686Z,25.50
2022-11-27T02:00:52.789Z,25.80
2022-11-27T02:03:19.897Z,26.90
2022-11-27T02:05:46.906Z,27.00
2022-11-27T02:08:15.169Z,21.50
2022-11-27T02:10:48.327Z,21.30
2022-11-27T02:13:28.202Z,21.00
2022-11-27T02:16:32.952Z,24.00
2022-11-27T02:19:37.241Z,21.90
2022-11-27T02:22:08.585Z,22.50
2022-11-27T02:24:54.151Z,20.80
2022-11-27T02:27:27.653Z,19.40
2022-11-27T02:29:56.467Z,20.50
2022-11-27T02:32:36.991Z,20.90
2022-11-27T02:35:22.387Z,22.70
2022-11-27T02:37:52.074Z,24.30
2022-11-27T02:40:23.485Z,24.00
2022-11-27T02:42:52.372Z,24.80
2022-11-27T02:45:23.520Z,19.90
2022-11-27T02:47:51.071Z,22.70
2022-11-27T02:50:21.570Z,22.70
2022-11-27T02:52:49.450Z,24.70
2022-11-27T02:55:18.069Z,24.40
2022-11-27T02:57:44.992Z,24.10
2022-11-27T03:00:12.560Z,25.70
2022-11-27T03:02:43.936Z,21.30
2022-11-27T03:05:12.743Z,23.60
2022-11-27T03:10:21.085Z,24.50
2022-11-27T03:12:48.312Z,24.40
2022-11-27T03:15:15.289Z,26.90
2022-11-27T03:18:06.666Z,26.40
2022-11-27T03:20:39.994Z,25.00
2022-11-27T03:23:07.240Z,24.00
2022-11-27T03:25:34.216Z,21.90
2022-11-27T03:28:06.353Z,22.00
2022-11-27T03:30:33.281Z,25.60
2022-11-27T03:33:01.144Z,30.20
2022-11-27T03:35:28.251Z,26.60
2022-11-27T03:37:55.207Z,24.30
2022-11-27T05:12:54.234Z,16.30
2022-11-27T05:15:21.673Z,15.40
2022-11-27T05:17:49.546Z,15.70
2022-11-27T05:20:17.000Z,17.50
2022-11-27T05:22:45.173Z,17.40
2022-11-27T05:25:12.164Z,17.90
2022-11-27T05:27:39.153Z,17.90
2022-11-27T05:30:07.237Z,16.40
2022-11-27T05:32:34.370Z,16.20
2022-11-27T05:35:01.328Z,16.70
2022-11-27T05:37:28.329Z,16.50
2022-11-27T05:39:55.378Z,17.70
2022-11-27T05:42:22.346Z,18.40
2022-11-27T05:44:51.743Z,17.80
2022-11-27T05:47:22.464Z,16.60
2022-11-27T05:49:49.441Z,15.70
2022-11-27T05:52:16.554Z,16.40
2022-11-27T05:54:44.080Z,17.90
2022-11-27T05:57:11.036Z,18.00
2022-11-27T05:59:37.936Z,17.60
2022-11-27T06:02:05.041Z,16.80
2022-11-27T06:04:35.260Z,14.30
2022-11-27T06:07:02.272Z,15.30
2022-11-27T06:09:29.424Z,15.80
2022-11-27T06:11:56.701Z,17.30
2022-11-27T06:14:24.686Z,16.70
2022-11-27T06:16:51.748Z,18.60
2022-11-27T06:19:21.878Z,17.20
2022-11-27T06:21:48.943Z,17.90
2022-11-27T06:24:15.929Z,14.30
2022-11-27T06:26:45.617Z,15.90
2022-11-27T06:29:12.548Z,16.00
2022-11-27T06:31:39.659Z,18.80
2022-11-27T06:34:06.772Z,18.60
2022-11-27T06:36:36.395Z,19.80
2022-11-27T06:39:04.617Z,19.00
2022-11-27T06:41:32.595Z,21.20
2022-11-27T06:44:00.153Z,17.60
2022-11-27T06:46:27.718Z,16.80
2022-11-27T06:48:54.737Z,18.80
2022-11-27T06:51:23.708Z,19.60
2022-11-27T06:53:51.028Z,19.50
2022-11-27T06:56:20.783Z,20.80
2022-11-27T06:58:51.194Z,20.30
2022-11-27T07:01:18.503Z,19.70
2022-11-27T07:03:45.767Z,19.00
2022-11-27T07:06:15.342Z,17.10
2022-11-27T07:08:45.173Z,18.40
2022-11-27T07:11:20.314Z,18.70
2022-11-27T07:13:47.596Z,18.30
2022-11-27T08:41:29.683Z,21.40
2022-11-27T08:43:56.654Z,17.20
2022-11-27T08:46:23.679Z,18.80
2022-11-27T08:48:50.650Z,20.70
2022-11-27T08:51:17.654Z,21.10
2022-11-27T08:53:45.836Z,21.70
2022-11-27T08:56:17.813Z,21.70
2022-11-27T08:58:44.856Z,18.00
2022-11-27T09:01:15.223Z,19.20
2022-11-27T09:03:42.529Z,21.10
2022-11-27T09:06:10.651Z,20.40
2022-11-27T09:08:39.176Z,20.50
2022-11-27T09:11:06.594Z,22.90
2022-11-27T09:13:39.407Z,25.60
2022-11-27T09:16:08.593Z,25.10
2022-11-27T09:18:36.279Z,20.40
2022-11-27T09:21:08.432Z,19.30
2022-11-27T09:23:35.893Z,24.00
2022-11-27T09:26:04.007Z,24.40
2022-11-27T09:28:32.261Z,22.50
2022-11-27T09:31:01.189Z,21.30
2022-11-27T09:33:30.008Z,21.00
2022-11-27T09:35:57.571Z,22.10
2022-11-27T09:38:24.643Z,20.00
2022-11-27T09:40:53.216Z,21.40
2022-11-27T09:43:28.881Z,21.00
2022-11-27T09:45:58.034Z,22.30
2022-11-27T09:48:33.098Z,23.40
2022-11-27T09:51:04.124Z,23.30
2022-11-27T09:54:02.432Z,23.10
2022-11-27T09:56:29.540Z,22.00
2022-11-27T09:58:57.639Z,19.80
2022-11-27T10:01:34.915Z,19.30
2022-11-27T10:04:06.577Z,19.30
2022-11-27T10:06:36.658Z,22.90
2022-11-27T10:09:12.841Z,20.10
2022-11-27T10:11:57.032Z,21.00
2022-11-27T10:14:44.361Z,22.70
2022-11-27T10:17:20.836Z,21.30
2022-11-27T10:19:54.287Z,17.60
2022-11-27T10:22:44.319Z,18.90
2022-11-27T10:25:40.708Z,20.40
2022-11-27T10:28:11.053Z,21.60
2022-11-27T10:30:40.643Z,21.60
2022-11-27T10:33:15.379Z,22.60
2022-11-27T10:35:42.301Z,21.80
2022-11-27T10:38:36.361Z,22.10
2022-11-27T10:41:41.993Z,19.50
2022-11-27T10:44:23.609Z,21.70
2022-11-27T10:46:51.263Z,22.40
2022-11-27T10:49:18.183Z,22.40
2022-11-27T10:51:46.312Z,23.40
2022-11-27T10:54:21.995Z,23.10
2022-11-27T10:57:10.576Z,23.10
2022-11-27T11:00:05.359Z,23.50
2022-11-27T11:02:34.298Z,20.70
2022-11-27T11:05:34.612Z,21.80
2022-11-27T11:07:59.434Z,20.90
2022-11-27T11:10:36.559Z,21.80
2022-11-27T11:13:14.316Z,23.40
2022-11-27T11:16:14.466Z,22.60
2022-11-27T11:18:49.441Z,22.10
2022-11-27T11:21:24.678Z,22.80
2022-11-27T11:24:05.104Z,21.30
2022-11-27T11:29:28.165Z,18.30
2022-11-27T11:31:55.998Z,21.00
2022-11-27T11:34:27.375Z,19.50
2022-11-27T11:37:08.984Z,20.30
2022-11-27T11:39:58.442Z,20.60
2022-11-27T11:42:30.075Z,20.70
2022-11-27T11:45:03.421Z,17.80
2022-11-27T11:47:30.548Z,17.50
2022-11-27T11:49:57.535Z,19.60
2022-11-27T11:53:08.355Z,19.70
2022-11-27T11:55:42.115Z,18.40
2022-11-27T11:58:33.537Z,21.30
2022-11-27T12:01:27.322Z,21.90
2022-11-27T12:04:10.814Z,22.80
2022-11-27T12:07:15.723Z,19.30
2022-11-27T12:09:42.760Z,18.90
2022-11-27T12:12:18.576Z,22.00
2022-11-27T12:14:52.996Z,25.20
2022-11-27T12:17:33.175Z,22.50
2022-11-27T12:20:18.836Z,23.00
2022-11-27T12:22:53.941Z,21.30
2022-11-27T12:25:27.581Z,19.80
2022-11-27T12:28:13.656Z,17.30
2022-11-27T12:30:46.448Z,16.90
2022-11-27T12:33:23.470Z,18.70
2022-11-27T12:36:02.127Z,19.50
2022-11-27T12:38:42.098Z,19.40
2022-11-27T12:41:15.137Z,19.30
2022-11-27T12:43:45.534Z,18.40
2022-11-27T12:46:14.986Z,19.30
2022-11-27T12:49:00.093Z,16.70
2022-11-27T12:57:00.717Z,23.10
2022-11-27T12:59:39.369Z,21.00
2022-11-27T13:02:33.054Z,20.20
2022-11-27T13:05:18.263Z,20.50
2022-11-27T13:07:56.894Z,16.50
2022-11-27T13:10:49.127Z,16.30
2022-11-27T13:13:25.457Z,18.20
2022-11-27T13:15:54.874Z,17.30
2022-11-27T13:18:26.629Z,17.00
2022-11-27T13:20:53.842Z,18.00
2022-11-27T13:23:21.033Z,16.70
2022-11-27T13:25:53.227Z,16.20
2022-11-27T13:28:33.199Z,14.10
2022-11-27T13:31:00.295Z,14.40
2022-11-27T13:33:41.907Z,13.90
2022-11-27T17:47:18.156Z,16.60
2022-11-27T17:49:45.362Z,17.10
2022-11-27T17:52:13.126Z,12.50
2022-11-27T17:54:40.693Z,14.10
2022-11-27T17:57:07.664Z,13.50
2022-11-27T17:59:35.096Z,18.10
2022-11-27T18:02:02.219Z,17.90
2022-11-27T18:04:31.192Z,19.80
2022-11-27T18:06:58.786Z,12.70
2022-11-27T18:09:25.779Z,13.50
2022-11-27T18:11:55.585Z,12.10
2022-11-27T18:14:22.955Z,13.10
2022-11-27T18:16:51.286Z,11.70
2022-11-27T18:19:18.537Z,11.90
2022-11-27T18:21:45.620Z,20.40
2022-11-27T18:24:28.184Z,44.30
2022-11-27T18:27:11.082Z,28.50
2022-11-27T18:29:39.919Z,35.10
2022-11-27T18:32:07.226Z,37.20
2022-11-27T18:34:34.429Z,46.10
2022-11-27T18:37:01.454Z,60.50
2022-11-27T18:39:28.635Z,48.30
2022-11-27T18:41:55.898Z,27.10
2022-11-27T18:44:22.896Z,22.90
2022-11-27T18:46:50.802Z,21.60
2022-11-27T18:49:18.451Z,15.10
2022-11-27T18:51:46.517Z,12.50
2022-11-27T18:54:13.846Z,16.00
2022-11-27T18:56:41.251Z,15.90
2022-11-27T18:59:09.089Z,16.30
2022-11-27T19:01:41.875Z,17.70
2022-11-27T19:04:10.721Z,15.30
2022-11-27T19:06:38.118Z,15.00
2022-11-27T19:09:06.019Z,13.50
2022-11-27T19:11:34.137Z,13.00
2022-11-27T19:14:01.741Z,12.70
2022-11-27T19:16:31.882Z,11.90
2022-11-27T19:18:59.919Z,12.80
2022-11-27T19:21:28.512Z,14.50
2022-11-27T19:23:57.029Z,13.90
2022-11-27T19:26:27.202Z,15.00
2022-11-27T19:28:57.571Z,13.00
2022-11-27T19:31:27.664Z,11.80
2022-11-27T19:33:55.484Z,12.20
2022-11-27T19:36:23.128Z,12.10
2022-11-27T19:38:54.532Z,11.70
2022-11-27T19:41:21.692Z,11.50
2022-11-27T19:43:48.992Z,11.30
2022-11-27T19:46:17.216Z,11.00
2022-11-27T19:48:45.032Z,12.50
2022-11-27T19:51:13.033Z,11.30
2022-11-27T19:53:40.362Z,11.60
2022-11-27T19:56:07.990Z,11.40
2022-11-27T19:58:35.281Z,12.00
2022-11-27T20:01:13.377Z,11.90
2022-11-27T20:03:41.220Z,11.70
2022-11-27T20:06:12.785Z,12.00
2022-11-27T20:08:39.851Z,11.40
2022-11-27T20:11:09.007Z,11.90
2022-11-27T20:13:36.600Z,12.70
2022-11-27T20:16:15.349Z,15.10
2022-11-27T20:18:42.701Z,14.80
2022-11-27T20:21:21.158Z,16.00
2022-11-27T20:23:48.833Z,16.30
2022-11-27T20:26:18.133Z,16.60
2022-11-27T20:28:45.578Z,21.40
2022-11-27T20:31:23.974Z,19.70
2022-11-27T20:33:52.497Z,18.60
2022-11-27T20:36:20.205Z,16.60
2022-11-27T20:38:49.133Z,16.50
2022-11-27T20:41:18.037Z,16.40
2022-11-27T20:43:45.280Z,18.80
2022-11-27T20:46:15.040Z,18.80
2022-11-27T20:48:42.640Z,19.40
2022-11-27T20:51:11.391Z,22.70
2022-11-27T20:53:38.729Z,21.30
2022-11-27T20:56:06.396Z,21.40
2022-11-27T20:58:35.273Z,17.90
2022-11-27T21:01:16.556Z,18.90
2022-11-27T21:03:44.743Z,17.60
2022-11-27T21:06:12.309Z,16.90
2022-11-27T21:08:39.325Z,17.00
2022-11-27T21:11:13.756Z,100.50
2022-11-27T21:13:41.230Z,40.90
2022-11-27T21:16:13.562Z,24.60
2022-11-27T21:18:40.681Z,15.90
2022-11-27T21:21:11.956Z,17.80
2022-11-27T21:23:40.572Z,16.80
2022-11-27T21:26:08.392Z,17.50
2022-11-27T21:28:36.194Z,22.20
2022-11-27T21:31:08.300Z,21.20
2022-11-27T21:33:37.082Z,19.50
2022-11-27T21:36:05.102Z,19.80
2022-11-27T21:38:32.790Z,12.90
2022-11-27T21:40:59.861Z,13.00
2022-11-27T21:43:27.127Z,14.20
2022-11-27T21:45:54.971Z,12.90
2022-11-27T21:48:22.411Z,11.80
2022-11-27T21:50:49.434Z,12.30
2022-11-27T21:53:16.803Z,14.70
2022-11-27T21:55:44.831Z,15.00
2022-11-27T21:58:11.933Z,19.30
2022-11-27T22:00:39.549Z,18.50
2022-11-27T22:03:07.168Z,13.20
2022-11-27T23:26:33.041Z,32.20
2022-11-27T23:29:00.135Z,12.50
2022-11-27T23:31:31.088Z,48.70
2022-11-27T23:33:58.860Z,27.10
2022-11-27T23:36:25.903Z,57.20
2022-11-27T23:38:52.892Z,25.40
2022-11-27T23:41:21.610Z,16.90
2022-11-27T23:43:48.994Z,18.30
2022-11-27T23:46:17.014Z,9.50
2022-11-27T23:48:44.234Z,21.00
2022-11-27T23:51:16.187Z,14.10
2022-11-27T23:53:43.403Z,12.20
2022-11-27T23:56:14.880Z,21.30
2022-11-27T23:58:46.700Z,24.50
